HRYR/KGL METAR and TAF weather

Enter ICAO airport designator
Station Type Date Time Source
HRYR METAR 2018/10/19 15:30 UTC NOAA

HRYR 191530Z 29003KT 250V330 9999 FEW023CB SCT025 17/16 Q1018 NOSIG


Station Type Date Time Source
HRYR Decoded METAR 2018/10/19 15:30 UTC NOAA

Kigali, Rwanda (HRYR) 01-58S 030-07E 1497M
Oct 19, 2018 - 11:30 AM EDT / 2018.10.19 1530 UTC
Wind: from the WNW (290 degrees) at 3 MPH (3 KT) (direction variable):0
Visibility: greater than 7 mile(s):0
Sky conditions: partly cloudy
Weather: Cumulonimbus clouds observed
Temperature: 62 F (17 C)
Dew Point: 60 F (16 C)
Relative Humidity: 93%
Pressure (altimeter): 30.06 in. Hg (1018 hPa)
ob: HRYR 191530Z 29003KT 250V330 9999 FEW023CB SCT025 17/16 Q1018 NOSIG
cycle: 15

Station Type Date Time Source
HRYR TAF 2018/10/19 12:54 UTC NOAA

TAF HRYR 191100Z 1912/2018 21010KT 9999 FEW023CB BKN100
TEMPO 1910/1916 18010G20KT TSRA FEW020CB BKN025 FM 192000 32004KT SCT026 SCT100
BECMG 2003/2006 00000KT SCT025 BKN100 FM 200900 16006KT SCT025
TEMPO 2011/2017 18010G20KT -TSRA FEW023CB BKN025


Example: see airport list